createdAt,value
2023-07-11T00:02:18.151Z,94.86
2023-07-11T00:04:52.352Z,95.72
2023-07-11T00:07:25.254Z,96.07
2023-07-11T00:09:58.098Z,96.00
2023-07-11T00:12:31.196Z,93.65
2023-07-11T00:15:05.860Z,94.28
2023-07-11T00:17:38.877Z,98.05
2023-07-11T00:20:15.142Z,95.39
2023-07-11T00:22:48.368Z,94.93
2023-07-11T00:25:21.202Z,94.91
2023-07-11T00:27:54.014Z,94.84
2023-07-11T00:30:26.839Z,95.13
2023-07-11T00:33:00.149Z,94.63
2023-07-11T00:35:34.747Z,94.00
2023-07-11T00:38:08.680Z,92.99
2023-07-11T00:40:42.324Z,95.02
2023-07-11T00:43:18.445Z,97.36
2023-07-11T00:46:13.525Z,96.99
2023-07-11T00:48:49.735Z,97.25
2023-07-11T00:51:30.790Z,97.69
2023-07-11T00:54:07.752Z,97.31
2023-07-11T00:56:43.697Z,94.86
2023-07-11T00:59:21.657Z,93.65
2023-07-11T01:02:01.219Z,94.31
2023-07-11T01:04:34.540Z,97.49
2023-07-11T01:07:11.309Z,98.41
2023-07-11T01:09:44.226Z,96.15
2023-07-11T01:12:18.889Z,95.74
2023-07-11T01:14:53.920Z,96.26
2023-07-11T01:17:29.231Z,96.37
2023-07-11T01:20:04.760Z,96.74
2023-07-11T01:22:41.505Z,94.49
2023-07-11T01:25:17.167Z,93.79
2023-07-11T01:27:52.196Z,93.86
2023-07-11T01:30:26.275Z,96.93
2023-07-11T01:32:59.475Z,95.56
2023-07-11T01:35:32.481Z,95.20
2023-07-11T01:38:06.764Z,94.68
2023-07-11T01:40:39.557Z,94.59
2023-07-11T01:43:12.752Z,95.33
2023-07-11T01:45:45.924Z,97.85
2023-07-11T01:48:18.855Z,98.92
2023-07-11T01:50:51.964Z,100.00
2023-07-11T01:53:26.258Z,99.69
2023-07-11T01:56:01.195Z,99.92
2023-07-11T01:58:34.828Z,98.79
2023-07-11T02:01:08.018Z,97.48
2023-07-11T02:03:40.939Z,98.38
2023-07-11T02:06:13.842Z,100.00
2023-07-11T02:08:48.224Z,100.00
2023-07-11T02:11:21.108Z,100.00
2023-07-11T02:13:54.081Z,100.00
2023-07-11T02:16:27.736Z,100.00
2023-07-11T02:19:00.562Z,99.66
2023-07-11T02:21:33.636Z,100.00
2023-07-11T02:24:09.822Z,100.00
2023-07-11T02:26:42.948Z,100.00
2023-07-11T02:29:16.211Z,100.00
2023-07-11T02:31:49.132Z,100.00
2023-07-11T02:34:22.504Z,100.00
2023-07-11T02:36:55.660Z,100.00
2023-07-11T02:39:30.330Z,100.00
2023-07-11T02:42:03.168Z,100.00
2023-07-11T02:44:36.046Z,100.00
2023-07-11T02:47:09.118Z,100.00
2023-07-11T02:49:42.313Z,100.00
2023-07-11T02:52:15.175Z,100.00
2023-07-11T02:54:49.301Z,100.00
2023-07-11T02:57:22.075Z,100.00
2023-07-11T02:59:54.759Z,100.00
2023-07-11T03:02:27.546Z,100.00
2023-07-11T03:05:00.452Z,100.00
2023-07-11T03:07:33.274Z,98.40
2023-07-11T03:10:08.591Z,99.44
2023-07-11T03:12:41.495Z,99.66
2023-07-11T03:15:14.281Z,99.22
2023-07-11T03:17:47.079Z,98.51
2023-07-11T03:20:20.038Z,97.67
2023-07-11T03:22:52.889Z,97.97
2023-07-11T03:25:27.213Z,97.37
2023-07-11T03:28:00.021Z,97.49
2023-07-11T03:30:33.454Z,97.59
2023-07-11T03:33:06.399Z,97.73
2023-07-11T03:35:39.359Z,97.43
2023-07-11T03:38:12.270Z,96.98
2023-07-11T03:40:46.779Z,97.30
2023-07-11T03:43:20.787Z,97.12
2023-07-11T03:45:53.788Z,96.97
2023-07-11T03:48:26.632Z,96.90
2023-07-11T03:50:59.478Z,97.63
2023-07-11T03:53:32.398Z,99.70
2023-07-11T03:56:07.429Z,100.00
2023-07-11T03:58:40.490Z,100.00
2023-07-11T04:01:14.307Z,100.00
2023-07-11T04:03:47.158Z,100.00
2023-07-11T04:06:20.098Z,100.00
2023-07-11T04:08:53.011Z,100.00
2023-07-11T04:11:27.455Z,100.00
2023-07-11T04:14:00.529Z,100.00
2023-07-11T04:16:33.629Z,100.00
2023-07-11T04:19:07.708Z,100.00
2023-07-11T04:21:40.482Z,100.00
2023-07-11T04:24:13.423Z,100.00
2023-07-11T04:26:47.870Z,100.00
2023-07-11T04:29:20.692Z,100.00
2023-07-11T04:31:53.466Z,100.00
2023-07-11T04:34:26.423Z,100.00
2023-07-11T04:36:59.337Z,100.00
2023-07-11T04:39:32.084Z,100.00
2023-07-11T04:42:06.589Z,100.00
2023-07-11T04:44:39.339Z,99.74
2023-07-11T04:47:12.565Z,98.95
2023-07-11T04:49:45.354Z,99.67
2023-07-11T04:52:18.222Z,99.53
2023-07-11T04:54:50.987Z,99.02
2023-07-11T04:57:26.124Z,98.84
2023-07-11T04:59:58.966Z,98.19
2023-07-11T05:02:31.860Z,98.90
2023-07-11T05:05:04.983Z,99.96
2023-07-11T05:07:37.942Z,99.95
2023-07-11T05:10:11.004Z,97.99
2023-07-11T05:12:45.114Z,98.16
2023-07-11T05:15:18.265Z,96.25
2023-07-11T05:17:51.416Z,96.61
2023-07-11T05:20:24.394Z,95.85
2023-07-11T05:22:57.174Z,96.00
2023-07-11T05:25:29.972Z,95.07
2023-07-11T05:28:04.417Z,95.22
2023-07-11T05:30:39.456Z,95.33
2023-07-11T05:33:12.453Z,93.91
2023-07-11T05:35:52.363Z,93.99
2023-07-11T05:38:25.440Z,93.14
2023-07-11T05:40:59.503Z,92.05
2023-07-11T05:43:39.169Z,90.88
2023-07-11T05:46:21.169Z,91.08
2023-07-11T05:48:59.026Z,90.50
2023-07-11T05:51:34.448Z,92.08
2023-07-11T05:54:10.448Z,91.86
2023-07-11T05:56:46.049Z,91.31
2023-07-11T05:59:24.760Z,91.53
2023-07-11T06:02:01.120Z,90.68
2023-07-11T06:04:41.260Z,89.14
2023-07-11T06:07:17.034Z,87.92
2023-07-11T06:09:54.410Z,86.74
2023-07-11T06:12:37.135Z,86.44
2023-07-11T06:15:14.074Z,85.72
2023-07-11T06:17:53.750Z,85.41
2023-07-11T06:20:28.450Z,85.22
2023-07-11T06:23:05.865Z,85.86
2023-07-11T06:25:42.678Z,85.00
2023-07-11T06:28:23.457Z,83.28
2023-07-11T06:31:03.764Z,82.84
2023-07-11T06:33:42.310Z,81.96
2023-07-11T06:36:21.119Z,81.20
2023-07-11T06:38:58.010Z,80.06
2023-07-11T06:41:36.057Z,79.29
2023-07-11T06:44:13.059Z,78.36
2023-07-11T06:46:52.434Z,77.47
2023-07-11T06:49:28.155Z,75.88
2023-07-11T06:52:04.699Z,74.83
2023-07-11T06:54:45.202Z,73.35
2023-07-11T06:57:22.208Z,72.72
2023-07-11T07:00:02.777Z,71.34
2023-07-11T07:02:41.102Z,72.00
2023-07-11T07:05:21.946Z,70.85
2023-07-11T07:08:09.057Z,69.94
2023-07-11T07:10:50.235Z,68.21
2023-07-11T07:13:27.825Z,67.12
2023-07-11T07:16:04.543Z,67.13
2023-07-11T07:18:46.792Z,65.80
2023-07-11T07:21:25.913Z,65.11
2023-07-11T07:24:05.335Z,62.55
2023-07-11T07:26:42.178Z,62.53
2023-07-11T07:29:18.634Z,61.19
2023-07-11T07:31:55.038Z,59.60
2023-07-11T07:34:34.020Z,57.89
2023-07-11T07:37:11.903Z,57.74
2023-07-11T07:39:49.774Z,57.36
2023-07-11T07:42:26.242Z,56.57
2023-07-11T07:45:06.106Z,55.61
2023-07-11T07:47:41.584Z,55.28
2023-07-11T07:50:18.716Z,54.68
2023-07-11T07:52:56.955Z,54.30
2023-07-11T07:55:38.019Z,53.72
2023-07-11T07:58:42.182Z,52.73
2023-07-11T08:01:25.557Z,51.32
2023-07-11T08:04:15.457Z,50.77
2023-07-11T08:07:05.967Z,51.09
2023-07-11T08:09:49.016Z,50.83
2023-07-11T08:12:38.448Z,49.18
2023-07-11T08:15:21.721Z,47.59
2023-07-11T08:18:11.777Z,46.74
2023-07-11T08:21:01.442Z,45.95
2023-07-11T08:23:52.463Z,46.18
2023-07-11T08:26:42.466Z,45.55
2023-07-11T08:29:30.204Z,44.80
2023-07-11T08:32:20.496Z,44.80
2023-07-11T08:35:03.560Z,44.66
2023-07-11T08:37:53.523Z,44.74
2023-07-11T08:40:48.429Z,43.60
2023-07-11T08:43:35.249Z,42.67
2023-07-11T08:46:28.511Z,43.81
2023-07-11T08:49:16.964Z,43.27
2023-07-11T08:52:10.449Z,42.93
2023-07-11T08:55:07.441Z,42.69
2023-07-11T08:58:04.239Z,43.07
2023-07-11T09:00:55.472Z,42.98
2023-07-11T09:03:52.451Z,41.77
2023-07-11T09:06:43.608Z,41.57
2023-07-11T09:09:33.579Z,41.58
2023-07-11T09:12:25.381Z,42.03
2023-07-11T09:15:26.428Z,41.17
2023-07-11T09:18:32.004Z,41.37
2023-07-11T09:21:21.892Z,40.63
2023-07-11T09:24:23.019Z,41.14
2023-07-11T09:27:33.501Z,41.24
2023-07-11T09:30:31.447Z,40.96
2023-07-11T09:33:28.520Z,40.92
2023-07-11T09:36:23.028Z,40.38
2023-07-11T09:39:25.457Z,40.83
2023-07-11T09:42:23.584Z,40.03
2023-07-11T09:45:14.613Z,41.48
2023-07-11T09:48:12.452Z,39.02
2023-07-11T09:51:15.505Z,39.36
2023-07-11T09:54:07.430Z,38.65
2023-07-11T09:56:58.636Z,38.12
2023-07-11T09:59:45.515Z,39.31
2023-07-11T10:02:41.543Z,40.27
2023-07-11T10:05:33.447Z,38.65
2023-07-11T10:08:28.459Z,38.72
2023-07-11T10:11:36.442Z,38.79
2023-07-11T10:14:23.976Z,38.32
2023-07-11T10:17:25.712Z,37.89
2023-07-11T10:20:19.694Z,39.00
2023-07-11T10:23:14.050Z,39.63
2023-07-11T10:26:04.597Z,39.60
2023-07-11T10:28:56.403Z,39.01
2023-07-11T10:31:50.549Z,39.74
2023-07-11T10:34:48.585Z,38.99
2023-07-11T10:37:40.686Z,38.79
2023-07-11T10:40:37.476Z,38.53
2023-07-11T10:43:36.498Z,37.64
2023-07-11T10:46:35.582Z,36.79
2023-07-11T10:49:38.498Z,37.27
2023-07-11T10:52:31.554Z,37.87
2023-07-11T10:55:27.474Z,37.43
2023-07-11T10:58:19.468Z,37.29
2023-07-11T11:06:10.498Z,36.67
2023-07-11T11:09:06.534Z,36.29
2023-07-11T11:12:01.485Z,37.21
2023-07-11T11:19:34.461Z,34.79
2023-07-11T11:22:34.576Z,35.58
2023-07-11T11:25:30.711Z,35.14
2023-07-11T11:28:35.502Z,35.61
2023-07-11T11:31:32.483Z,35.59
2023-07-11T11:34:44.073Z,35.56
2023-07-11T11:37:50.491Z,35.92
2023-07-11T11:40:45.547Z,34.89
2023-07-11T11:43:48.873Z,35.72
2023-07-11T11:46:52.660Z,34.97
2023-07-11T11:50:39.638Z,33.96
2023-07-11T11:53:02.782Z,33.87
2023-07-11T11:56:20.337Z,34.64
2023-07-11T11:59:19.503Z,34.73
2023-07-11T12:02:13.923Z,35.35
2023-07-11T12:05:17.550Z,35.10
2023-07-11T12:08:35.604Z,34.18
2023-07-11T12:11:31.269Z,32.79
2023-07-11T12:14:25.224Z,33.48
2023-07-11T12:17:00.915Z,33.59
2023-07-11T12:19:41.308Z,34.18
2023-07-11T12:22:19.469Z,33.89
2023-07-11T12:25:05.544Z,34.06
2023-07-11T12:28:04.809Z,33.39
2023-07-11T12:30:45.649Z,32.41
2023-07-11T12:33:37.100Z,32.79
2023-07-11T12:36:36.923Z,32.91
2023-07-11T12:39:37.689Z,32.55
2023-07-11T12:42:25.953Z,32.46
2023-07-11T12:45:02.014Z,32.42
2023-07-11T12:47:38.590Z,32.67
2023-07-11T12:50:21.567Z,33.00
2023-07-11T12:53:02.433Z,31.88
2023-07-11T12:55:43.094Z,32.19
2023-07-11T12:58:22.036Z,31.90
2023-07-11T13:00:57.664Z,31.70
2023-07-11T13:03:37.152Z,31.47
2023-07-11T13:06:32.228Z,31.43
2023-07-11T13:09:12.686Z,30.81
2023-07-11T13:11:51.174Z,30.45
2023-07-11T13:14:29.026Z,31.10
2023-07-11T13:17:08.440Z,30.33
2023-07-11T13:19:43.430Z,31.14
2023-07-11T13:22:22.900Z,29.92
2023-07-11T13:25:01.889Z,30.52
2023-07-11T13:27:40.123Z,30.00
2023-07-11T13:30:22.998Z,30.41
2023-07-11T13:32:58.659Z,30.94
2023-07-11T13:35:36.525Z,31.50
2023-07-11T13:38:16.993Z,31.02
2023-07-11T13:43:59.681Z,30.83
2023-07-11T13:46:38.513Z,30.70
2023-07-11T13:49:21.952Z,31.31
2023-07-11T13:51:59.082Z,31.39
2023-07-11T13:54:36.465Z,31.64
2023-07-11T13:57:13.886Z,32.07
2023-07-11T14:00:03.909Z,32.15
2023-07-11T14:02:50.050Z,32.40
2023-07-11T14:05:29.212Z,32.43
2023-07-11T14:08:05.009Z,32.63
2023-07-11T14:10:39.454Z,32.83
2023-07-11T14:13:14.799Z,32.93
2023-07-11T14:15:49.187Z,32.79
2023-07-11T14:18:22.036Z,33.98
2023-07-11T14:20:55.170Z,33.52
2023-07-11T14:23:30.536Z,34.56
2023-07-11T14:26:03.741Z,34.56
2023-07-11T14:28:37.602Z,33.92
2023-07-11T14:31:17.302Z,33.87
2023-07-11T14:33:51.003Z,34.83
2023-07-11T14:36:23.963Z,35.32
2023-07-11T14:38:57.208Z,34.90
2023-07-11T14:41:40.922Z,34.38
2023-07-11T14:44:25.539Z,34.50
2023-07-11T14:47:00.292Z,34.78
2023-07-11T14:49:33.254Z,34.49
2023-07-11T14:52:15.832Z,34.72
2023-07-11T14:57:14.586Z,34.53
2023-07-11T15:00:22.067Z,34.00
2023-07-11T15:02:56.551Z,34.76
2023-07-11T15:09:13.324Z,35.16
2023-07-11T15:16:38.297Z,34.79
2023-07-11T15:19:18.708Z,33.64
2023-07-11T15:21:57.117Z,34.57
2023-07-11T15:24:33.121Z,34.64
2023-07-11T15:27:06.958Z,34.29
2023-07-11T15:29:39.849Z,34.17
2023-07-11T15:32:20.322Z,34.46
2023-07-11T15:34:54.806Z,35.36
2023-07-11T15:37:27.699Z,34.87
2023-07-11T15:40:01.258Z,35.09
2023-07-11T15:42:34.713Z,35.59
2023-07-11T15:45:15.218Z,36.77
2023-07-11T15:47:48.536Z,36.36
2023-07-11T15:50:25.275Z,36.32
2023-07-11T15:53:00.182Z,35.30
2023-07-11T15:55:34.773Z,34.98
2023-07-11T15:58:15.427Z,35.06
2023-07-11T16:00:48.810Z,35.27
2023-07-11T16:03:25.348Z,34.10
2023-07-11T16:05:59.989Z,35.42
2023-07-11T16:08:37.943Z,35.00
2023-07-11T16:11:12.350Z,34.85
2023-07-11T16:13:45.477Z,35.33
2023-07-11T16:16:22.598Z,35.04
2023-07-11T16:18:55.948Z,35.54
2023-07-11T16:21:31.762Z,35.85
2023-07-11T16:24:13.063Z,36.15
2023-07-11T16:26:46.292Z,35.95
2023-07-11T16:29:23.927Z,36.36
2023-07-11T16:31:57.609Z,36.86
2023-07-11T16:34:32.406Z,36.31
2023-07-11T16:37:17.783Z,36.85
2023-07-11T16:39:50.944Z,37.04
2023-07-11T16:42:24.993Z,36.57
2023-07-11T16:44:58.223Z,36.93
2023-07-11T16:47:31.671Z,36.98
2023-07-11T16:50:04.862Z,36.78
2023-07-11T16:52:39.629Z,36.78
2023-07-11T16:55:13.594Z,37.41
2023-07-11T16:57:46.834Z,37.28
2023-07-11T17:00:22.403Z,38.14
2023-07-11T17:02:55.856Z,38.19
2023-07-11T17:05:29.276Z,38.60
2023-07-11T17:08:11.941Z,39.18
2023-07-11T17:10:46.466Z,39.04
2023-07-11T17:13:23.508Z,38.98
2023-07-11T17:15:58.160Z,39.14
2023-07-11T17:18:31.504Z,39.23
2023-07-11T17:21:07.761Z,39.06
2023-07-11T17:23:44.641Z,39.36
2023-07-11T17:26:18.010Z,39.60
2023-07-11T17:28:50.910Z,39.97
2023-07-11T17:31:24.303Z,39.14
2023-07-11T17:33:57.153Z,39.80
2023-07-11T17:36:30.953Z,40.27
2023-07-11T17:39:12.903Z,40.48
2023-07-11T17:42:00.153Z,40.29
2023-07-11T17:44:42.767Z,39.88
2023-07-11T17:49:57.149Z,40.64
2023-07-11T17:52:35.120Z,40.94
2023-07-11T17:55:11.866Z,40.76
2023-07-11T17:57:45.429Z,40.74
2023-07-11T18:00:21.849Z,40.81
2023-07-11T18:03:01.508Z,40.57
2023-07-11T18:05:35.591Z,40.85
2023-07-11T18:08:14.054Z,41.19
2023-07-11T18:10:50.610Z,40.95
2023-07-11T18:13:23.463Z,41.88
2023-07-11T18:15:56.363Z,42.72
2023-07-11T18:18:32.449Z,41.62
2023-07-11T18:21:06.174Z,42.75
2023-07-11T18:23:40.068Z,41.43
2023-07-11T18:26:18.269Z,41.87
2023-07-11T18:28:51.270Z,41.98
2023-07-11T18:31:24.496Z,42.54
2023-07-11T18:33:57.547Z,42.51
2023-07-11T18:36:30.645Z,43.58
2023-07-11T18:39:03.640Z,43.91
2023-07-11T18:41:37.919Z,44.76
2023-07-11T18:44:10.991Z,44.93
2023-07-11T18:46:44.183Z,43.76
2023-07-11T18:49:17.237Z,45.18
2023-07-11T18:51:50.104Z,45.53
2023-07-11T18:54:22.905Z,45.42
2023-07-11T18:56:57.129Z,45.52
2023-07-11T18:59:30.189Z,46.54
2023-07-11T19:02:03.091Z,46.64
2023-07-11T19:04:36.016Z,46.46
2023-07-11T19:07:13.501Z,46.86
2023-07-11T19:09:48.066Z,47.62
2023-07-11T19:12:33.374Z,47.43
2023-07-11T19:15:09.281Z,48.26
2023-07-11T19:17:45.566Z,47.95
2023-07-11T19:20:23.282Z,47.70
2023-07-11T19:22:59.059Z,47.93
2023-07-11T19:25:33.632Z,47.82
2023-07-11T19:28:15.139Z,48.37
2023-07-11T19:30:50.189Z,48.87
2023-07-11T19:33:23.481Z,48.96
2023-07-11T19:35:58.380Z,49.95
2023-07-11T19:38:34.071Z,50.58
2023-07-11T19:41:07.288Z,50.73
2023-07-11T19:43:41.621Z,50.61
2023-07-11T19:46:16.776Z,50.37
2023-07-11T19:48:49.660Z,52.38
2023-07-11T19:51:22.525Z,51.63
2023-07-11T19:53:55.329Z,50.39
2023-07-11T19:56:29.222Z,49.86
2023-07-11T19:59:03.865Z,50.28
2023-07-11T20:01:36.810Z,49.92
2023-07-11T20:04:09.887Z,50.24
2023-07-11T20:06:42.835Z,50.09
2023-07-11T20:09:15.853Z,50.27
2023-07-11T20:11:48.816Z,49.86
2023-07-11T20:14:23.450Z,50.20
2023-07-11T20:16:56.356Z,51.49
2023-07-11T20:19:29.636Z,52.24
2023-07-11T20:22:02.956Z,52.73
2023-07-11T20:24:35.923Z,52.08
2023-07-11T20:27:11.725Z,51.73
2023-07-11T20:29:48.354Z,51.75
2023-07-11T20:32:21.392Z,51.49
2023-07-11T20:34:54.386Z,51.03
2023-07-11T20:37:27.548Z,51.30
2023-07-11T20:40:00.509Z,50.99
2023-07-11T20:42:33.379Z,50.68
2023-07-11T20:45:09.036Z,50.92
2023-07-11T20:47:47.073Z,50.90
2023-07-11T20:50:22.948Z,51.01
2023-07-11T20:52:55.789Z,50.83
2023-07-11T20:55:28.661Z,50.92
2023-07-11T20:58:02.575Z,51.02
2023-07-11T21:00:39.960Z,52.28
2023-07-11T21:03:13.299Z,52.52
2023-07-11T21:05:48.293Z,52.77
2023-07-11T21:08:29.133Z,53.84
2023-07-11T21:11:02.543Z,54.39
2023-07-11T21:13:35.665Z,54.67
2023-07-11T21:16:12.508Z,55.54
2023-07-11T21:18:45.522Z,57.00
2023-07-11T21:21:18.622Z,56.92
2023-07-11T21:23:52.293Z,55.97
2023-07-11T21:26:26.758Z,55.06
2023-07-11T21:29:00.561Z,53.46
2023-07-11T21:31:35.601Z,51.19
2023-07-11T21:34:09.145Z,51.76
2023-07-11T21:36:43.196Z,52.39
2023-07-11T21:39:17.217Z,52.90
2023-07-11T21:41:51.940Z,53.14
2023-07-11T21:44:25.095Z,53.36
2023-07-11T21:47:00.211Z,54.80
2023-07-11T21:49:33.316Z,57.09
2023-07-11T21:52:07.129Z,59.32
2023-07-11T21:54:40.139Z,61.17
2023-07-11T21:57:15.926Z,63.33
2023-07-11T21:59:49.141Z,65.88
2023-07-11T22:02:23.887Z,66.14
2023-07-11T22:04:57.045Z,68.07
2023-07-11T22:07:30.259Z,68.77
2023-07-11T22:10:03.930Z,70.91
2023-07-11T22:12:37.001Z,74.27
2023-07-11T22:15:11.535Z,79.67
2023-07-11T22:17:45.928Z,80.49
2023-07-11T22:20:22.295Z,82.46
2023-07-11T22:22:55.430Z,85.57
2023-07-11T22:25:29.241Z,87.94
2023-07-11T22:28:03.854Z,91.64
2023-07-11T22:30:38.984Z,94.42
2023-07-11T22:33:15.702Z,96.76
2023-07-11T22:35:48.872Z,100.00
2023-07-11T22:38:22.036Z,100.00
2023-07-11T22:40:54.942Z,100.00
2023-07-11T22:43:28.235Z,100.00
2023-07-11T22:46:15.401Z,100.00
2023-07-11T22:48:50.703Z,100.00
2023-07-11T22:51:28.060Z,100.00
2023-07-11T22:54:01.288Z,100.00
2023-07-11T22:56:34.353Z,100.00
2023-07-11T22:59:07.502Z,100.00
2023-07-11T23:01:40.502Z,100.00
2023-07-11T23:04:15.061Z,100.00
2023-07-11T23:06:47.955Z,100.00
2023-07-11T23:09:20.987Z,100.00
2023-07-11T23:11:54.290Z,100.00
2023-07-11T23:14:27.231Z,100.00
2023-07-11T23:17:00.199Z,100.00
2023-07-11T23:19:35.309Z,100.00
2023-07-11T23:22:08.799Z,100.00
2023-07-11T23:24:41.770Z,100.00
2023-07-11T23:27:15.134Z,100.00
2023-07-11T23:29:48.314Z,100.00
2023-07-11T23:32:21.438Z,100.00
2023-07-11T23:34:55.746Z,100.00
2023-07-11T23:37:28.939Z,100.00
2023-07-11T23:40:01.835Z,100.00
2023-07-11T23:42:35.114Z,100.00
2023-07-11T23:45:09.425Z,100.00
2023-07-11T23:47:42.472Z,100.00
2023-07-11T23:50:21.436Z,100.00
2023-07-11T23:52:54.449Z,100.00
2023-07-11T23:55:27.367Z,100.00
2023-07-11T23:58:00.269Z,100.00
